Startpagina
METAR-TAF:

METAR-TAF

Vliegvelden :

Tena, Ecuador

breedte: 01-03-35S, lengte: 77-35-00W, hoogte: 376 m

Actueel weer

Dit bericht is 1 uur en het 13 minuten geleden gemaakt, om 18:00 UTC
Wind 4 kt uit het oostnoordoosten
Temperatuur 33°C
Vochtigheid 56%
Druk 1010 hPa
Zicht 10 km of meer
Weinig wolken op 2000 ft
Verspreide wolken op 10000 ft

METAR: SEJD 281800Z 06004KT 9999 FEW020 SCT100 33/23 Q1010 RMK A2984

Tijdstip: 14:13 (19:13 UTC)


TAF: ontbreekt

Waarnemingen en weersverwachtingen van meer dan 4000 vliegvelden (METAR en TAF).

De beschikbare stations zijn de gele en rode punten op de kaart.

Ga met uw muis naar het station om de naam te zien.

Klik dan om waarnemingen en weersverwachtingen te zien.

kaart wijzigen: klik op de groene knoppen met een zwart kruis om in te zoomen, op de groene knop met een streepje om uit te zoomen of op de groene pijlen voor aangrenzende kaarten.


METAR-TAF: